Terminal Aerodrome Forecast
Issued by NWS Wakefield, VA

Home | Current Version | Previous Version | Text Only | Print | Product List | Glossary On
Versions: 1 2 3 4 5 6 7 8 9 10 11 12 13 14 15 16 17
000
FTUS41 KAKQ 260500
TAFSBY
TAF
KSBY 260535Z 2606/2706 04004KT P6SM -RA BKN050 OVC080
     FM260800 03010KT 5SM -RA BR SCT020 OVC040
     FM261100 01015G22KT 2SM -RA BR OVC007
     FM262100 35013KT 3SM RA BR OVC005
     FM270200 32010KT P6SM OVC035=

USA.gov is the U.S. government's official web portal to all federal, state and local government web resources and services.